sensor_id;sensor_type;location;lat;lon;timestamp;temperature;humidity
40630;DHT22;26329;40.388;-3.710;2023-08-30T00:03:55;22.80;38.60
40630;DHT22;26329;40.388;-3.710;2023-08-30T00:14:02;22.80;37.90
40630;DHT22;26329;40.388;-3.710;2023-08-30T00:24:02;22.60;37.80
40630;DHT22;26329;40.388;-3.710;2023-08-30T00:34:03;22.40;37.80
40630;DHT22;26329;40.388;-3.710;2023-08-30T00:44:04;22.20;37.80
40630;DHT22;26329;40.388;-3.710;2023-08-30T00:54:04;22.20;37.60
40630;DHT22;26329;40.388;-3.710;2023-08-30T01:04:05;22.20;37.30
40630;DHT22;26329;40.388;-3.710;2023-08-30T01:14:13;22.00;37.20
40630;DHT22;26329;40.388;-3.710;2023-08-30T01:24:19;22.00;37.10
40630;DHT22;26329;40.388;-3.710;2023-08-30T01:34:24;21.90;36.90
40630;DHT22;26329;40.388;-3.710;2023-08-30T01:44:28;21.80;36.80
40630;DHT22;26329;40.388;-3.710;2023-08-30T01:54:30;21.70;37.20
40630;DHT22;26329;40.388;-3.710;2023-08-30T02:04:32;21.50;37.60
40630;DHT22;26329;40.388;-3.710;2023-08-30T02:14:32;21.30;38.00
40630;DHT22;26329;40.388;-3.710;2023-08-30T02:24:33;21.20;38.30
40630;DHT22;26329;40.388;-3.710;2023-08-30T02:34:34;21.10;38.80
40630;DHT22;26329;40.388;-3.710;2023-08-30T02:44:36;21.00;39.20
40630;DHT22;26329;40.388;-3.710;2023-08-30T02:54:36;21.00;39.30
40630;DHT22;26329;40.388;-3.710;2023-08-30T03:04:37;21.00;39.50
40630;DHT22;26329;40.388;-3.710;2023-08-30T03:14:39;21.00;39.90
40630;DHT22;26329;40.388;-3.710;2023-08-30T03:24:39;20.80;40.60
40630;DHT22;26329;40.388;-3.710;2023-08-30T03:34:40;20.80;41.10
40630;DHT22;26329;40.388;-3.710;2023-08-30T03:44:40;20.80;41.50
40630;DHT22;26329;40.388;-3.710;2023-08-30T03:54:41;20.60;41.90
40630;DHT22;26329;40.388;-3.710;2023-08-30T04:04:42;20.70;42.10
40630;DHT22;26329;40.388;-3.710;2023-08-30T04:14:42;20.50;42.40
40630;DHT22;26329;40.388;-3.710;2023-08-30T04:24:43;20.40;42.60
40630;DHT22;26329;40.388;-3.710;2023-08-30T04:34:43;20.30;42.70
40630;DHT22;26329;40.388;-3.710;2023-08-30T04:44:44;20.20;42.90
40630;DHT22;26329;40.388;-3.710;2023-08-30T04:54:45;20.10;43.30
40630;DHT22;26329;40.388;-3.710;2023-08-30T05:04:49;20.10;43.60
40630;DHT22;26329;40.388;-3.710;2023-08-30T05:14:49;19.90;44.20
40630;DHT22;26329;40.388;-3.710;2023-08-30T05:24:50;19.90;44.40
40630;DHT22;26329;40.388;-3.710;2023-08-30T05:34:51;19.90;44.60
40630;DHT22;26329;40.388;-3.710;2023-08-30T05:44:52;19.80;44.80
40630;DHT22;26329;40.388;-3.710;2023-08-30T05:54:53;19.60;45.40
40630;DHT22;26329;40.388;-3.710;2023-08-30T06:04:54;19.50;45.70
40630;DHT22;26329;40.388;-3.710;2023-08-30T06:14:54;19.30;46.10
40630;DHT22;26329;40.388;-3.710;2023-08-30T06:24:55;19.50;46.00
40630;DHT22;26329;40.388;-3.710;2023-08-30T06:34:56;19.40;46.50
40630;DHT22;26329;40.388;-3.710;2023-08-30T06:44:56;19.70;46.20
40630;DHT22;26329;40.388;-3.710;2023-08-30T06:54:57;19.70;46.20
40630;DHT22;26329;40.388;-3.710;2023-08-30T07:04:57;19.80;46.20
40630;DHT22;26329;40.388;-3.710;2023-08-30T07:14:58;19.80;46.40
40630;DHT22;26329;40.388;-3.710;2023-08-30T07:24:59;20.30;45.40
40630;DHT22;26329;40.388;-3.710;2023-08-30T07:34:59;20.80;44.40
40630;DHT22;26329;40.388;-3.710;2023-08-30T07:45:00;21.00;44.10
40630;DHT22;26329;40.388;-3.710;2023-08-30T07:55:00;21.30;43.60
40630;DHT22;26329;40.388;-3.710;2023-08-30T08:05:01;21.70;43.10
40630;DHT22;26329;40.388;-3.710;2023-08-30T08:15:02;22.00;42.60
40630;DHT22;26329;40.388;-3.710;2023-08-30T08:25:03;22.30;42.20
40630;DHT22;26329;40.388;-3.710;2023-08-30T08:35:04;22.30;42.20
40630;DHT22;26329;40.388;-3.710;2023-08-30T08:45:05;22.70;41.50
40630;DHT22;26329;40.388;-3.710;2023-08-30T08:55:06;22.80;41.20
40630;DHT22;26329;40.388;-3.710;2023-08-30T09:05:07;23.00;41.00
40630;DHT22;26329;40.388;-3.710;2023-08-30T09:15:07;23.20;40.40
40630;DHT22;26329;40.388;-3.710;2023-08-30T09:25:09;23.40;40.10
40630;DHT22;26329;40.388;-3.710;2023-08-30T09:35:09;23.60;39.40
40630;DHT22;26329;40.388;-3.710;2023-08-30T09:45:17;23.60;39.50
40630;DHT22;26329;40.388;-3.710;2023-08-30T09:55:18;23.40;40.40
40630;DHT22;26329;40.388;-3.710;2023-08-30T10:05:18;23.60;40.10
40630;DHT22;26329;40.388;-3.710;2023-08-30T10:15:20;23.80;39.80
40630;DHT22;26329;40.388;-3.710;2023-08-30T10:25:22;24.00;39.50
40630;DHT22;26329;40.388;-3.710;2023-08-30T10:35:25;24.20;39.30
40630;DHT22;26329;40.388;-3.710;2023-08-30T10:45:25;24.60;38.50
40630;DHT22;26329;40.388;-3.710;2023-08-30T10:55:26;24.90;37.60
40630;DHT22;26329;40.388;-3.710;2023-08-30T11:05:27;25.00;37.30
40630;DHT22;26329;40.388;-3.710;2023-08-30T11:15:28;25.00;37.20
40630;DHT22;26329;40.388;-3.710;2023-08-30T11:25:28;25.20;37.20
40630;DHT22;26329;40.388;-3.710;2023-08-30T11:35:30;25.20;36.80
40630;DHT22;26329;40.388;-3.710;2023-08-30T11:45:33;25.20;37.10
40630;DHT22;26329;40.388;-3.710;2023-08-30T11:55:34;25.50;36.40
40630;DHT22;26329;40.388;-3.710;2023-08-30T12:05:35;25.70;35.90
40630;DHT22;26329;40.388;-3.710;2023-08-30T12:15:43;25.90;35.20
40630;DHT22;26329;40.388;-3.710;2023-08-30T12:25:44;26.10;34.70
40630;DHT22;26329;40.388;-3.710;2023-08-30T12:35:44;26.20;34.50
40630;DHT22;26329;40.388;-3.710;2023-08-30T12:45:45;26.30;34.30
40630;DHT22;26329;40.388;-3.710;2023-08-30T12:55:46;26.60;33.60
40630;DHT22;26329;40.388;-3.710;2023-08-30T13:05:46;27.00;32.90
40630;DHT22;26329;40.388;-3.710;2023-08-30T13:15:47;27.00;32.80
40630;DHT22;26329;40.388;-3.710;2023-08-30T13:25:48;27.20;32.40
40630;DHT22;26329;40.388;-3.710;2023-08-30T13:35:49;27.00;32.40
40630;DHT22;26329;40.388;-3.710;2023-08-30T13:45:56;27.20;32.10
40630;DHT22;26329;40.388;-3.710;2023-08-30T13:55:57;27.30;32.00
40630;DHT22;26329;40.388;-3.710;2023-08-30T14:05:58;27.50;30.70
40630;DHT22;26329;40.388;-3.710;2023-08-30T14:16:02;27.70;30.60
40630;DHT22;26329;40.388;-3.710;2023-08-30T14:26:06;27.80;30.00
40630;DHT22;26329;40.388;-3.710;2023-08-30T14:36:10;27.70;30.00
40630;DHT22;26329;40.388;-3.710;2023-08-30T14:46:10;28.20;29.60
40630;DHT22;26329;40.388;-3.710;2023-08-30T14:56:11;28.20;29.10
40630;DHT22;26329;40.388;-3.710;2023-08-30T15:06:12;28.20;28.90
40630;DHT22;26329;40.388;-3.710;2023-08-30T15:16:12;28.20;28.60
40630;DHT22;26329;40.388;-3.710;2023-08-30T15:26:13;28.10;28.70
40630;DHT22;26329;40.388;-3.710;2023-08-30T15:36:17;28.20;28.40
40630;DHT22;26329;40.388;-3.710;2023-08-30T15:46:18;28.20;28.30
40630;DHT22;26329;40.388;-3.710;2023-08-30T15:56:19;28.20;28.40
40630;DHT22;26329;40.388;-3.710;2023-08-30T16:06:20;28.20;28.40
40630;DHT22;26329;40.388;-3.710;2023-08-30T16:16:21;28.20;28.00
40630;DHT22;26329;40.388;-3.710;2023-08-30T16:26:21;28.10;28.00
40630;DHT22;26329;40.388;-3.710;2023-08-30T16:36:22;28.10;27.70
40630;DHT22;26329;40.388;-3.710;2023-08-30T16:46:23;28.20;28.00
40630;DHT22;26329;40.388;-3.710;2023-08-30T16:56:23;28.20;27.80
40630;DHT22;26329;40.388;-3.710;2023-08-30T17:06:24;28.30;27.50
40630;DHT22;26329;40.388;-3.710;2023-08-30T17:16:27;28.20;27.50
40630;DHT22;26329;40.388;-3.710;2023-08-30T17:26:27;28.20;27.60
40630;DHT22;26329;40.388;-3.710;2023-08-30T17:36:28;28.20;27.50
40630;DHT22;26329;40.388;-3.710;2023-08-30T17:46:29;27.90;28.10
40630;DHT22;26329;40.388;-3.710;2023-08-30T17:56:31;27.80;28.30
40630;DHT22;26329;40.388;-3.710;2023-08-30T18:06:32;27.70;28.60
40630;DHT22;26329;40.388;-3.710;2023-08-30T18:16:32;27.60;28.50
40630;DHT22;26329;40.388;-3.710;2023-08-30T18:26:33;27.30;29.10
40630;DHT22;26329;40.388;-3.710;2023-08-30T18:36:34;27.20;28.50
40630;DHT22;26329;40.388;-3.710;2023-08-30T18:46:35;27.20;28.70
40630;DHT22;26329;40.388;-3.710;2023-08-30T18:56:37;27.00;28.90
40630;DHT22;26329;40.388;-3.710;2023-08-30T19:06:38;26.80;29.50
40630;DHT22;26329;40.388;-3.710;2023-08-30T19:16:38;26.70;29.60
40630;DHT22;26329;40.388;-3.710;2023-08-30T19:26:39;26.60;30.20
40630;DHT22;26329;40.388;-3.710;2023-08-30T19:36:40;26.30;30.70
40630;DHT22;26329;40.388;-3.710;2023-08-30T19:46:41;26.30;29.20
40630;DHT22;26329;40.388;-3.710;2023-08-30T19:56:42;26.00;29.80
40630;DHT22;26329;40.388;-3.710;2023-08-30T20:06:42;25.90;29.90
40630;DHT22;26329;40.388;-3.710;2023-08-30T20:16:43;26.00;29.60
40630;DHT22;26329;40.388;-3.710;2023-08-30T20:26:46;25.90;29.70
40630;DHT22;26329;40.388;-3.710;2023-08-30T20:36:47;25.90;29.70
40630;DHT22;26329;40.388;-3.710;2023-08-30T20:46:48;25.70;30.30
40630;DHT22;26329;40.388;-3.710;2023-08-30T20:56:50;25.60;30.50
40630;DHT22;26329;40.388;-3.710;2023-08-30T21:06:50;25.50;30.80
40630;DHT22;26329;40.388;-3.710;2023-08-30T21:16:51;25.20;31.40
40630;DHT22;26329;40.388;-3.710;2023-08-30T21:26:51;25.20;31.60
40630;DHT22;26329;40.388;-3.710;2023-08-30T21:36:52;25.00;31.80
40630;DHT22;26329;40.388;-3.710;2023-08-30T21:46:53;24.90;31.90
40630;DHT22;26329;40.388;-3.710;2023-08-30T21:56:53;24.70;32.40
40630;DHT22;26329;40.388;-3.710;2023-08-30T22:06:54;24.60;32.70
40630;DHT22;26329;40.388;-3.710;2023-08-30T22:16:54;24.60;32.60
40630;DHT22;26329;40.388;-3.710;2023-08-30T22:26:55;24.50;32.80
40630;DHT22;26329;40.388;-3.710;2023-08-30T22:36:56;24.50;32.90
40630;DHT22;26329;40.388;-3.710;2023-08-30T22:46:56;24.30;33.20
40630;DHT22;26329;40.388;-3.710;2023-08-30T22:56:57;24.20;33.50
40630;DHT22;26329;40.388;-3.710;2023-08-30T23:06:58;24.20;33.70
40630;DHT22;26329;40.388;-3.710;2023-08-30T23:16:59;24.20;34.00
40630;DHT22;26329;40.388;-3.710;2023-08-30T23:26:59;24.10;34.10
40630;DHT22;26329;40.388;-3.710;2023-08-30T23:37:00;24.00;34.40
40630;DHT22;26329;40.388;-3.710;2023-08-30T23:47:00;23.90;34.60
40630;DHT22;26329;40.388;-3.710;2023-08-30T23:57:01;23.80;34.80
